sensor_id;sensor_type;location;lat;lon;timestamp;temperature;humidity
7784;DHT22;19359;51.402;6.778;2022-09-30T00:02:19;5.40;1.00
7784;DHT22;19359;51.402;6.778;2022-09-30T00:04:47;5.40;1.00
7784;DHT22;19359;51.402;6.778;2022-09-30T00:07:14;6.90;1.00
7784;DHT22;19359;51.402;6.778;2022-09-30T00:09:41;5.30;1.00
7784;DHT22;19359;51.402;6.778;2022-09-30T00:12:08;7.60;1.00
7784;DHT22;19359;51.402;6.778;2022-09-30T00:14:35;7.60;1.00
7784;DHT22;19359;51.402;6.778;2022-09-30T00:17:02;5.30;1.00
7784;DHT22;19359;51.402;6.778;2022-09-30T00:19:28;6.30;1.00
7784;DHT22;19359;51.402;6.778;2022-09-30T00:21:56;5.30;1.00
7784;DHT22;19359;51.402;6.778;2022-09-30T00:24:23;6.70;1.00
7784;DHT22;19359;51.402;6.778;2022-09-30T00:26:50;5.20;1.00
7784;DHT22;19359;51.402;6.778;2022-09-30T00:29:17;5.20;1.00
7784;DHT22;19359;51.402;6.778;2022-09-30T00:31:43;5.20;1.00
7784;DHT22;19359;51.402;6.778;2022-09-30T00:34:10;7.20;1.00
7784;DHT22;19359;51.402;6.778;2022-09-30T00:36:41;5.10;1.00
7784;DHT22;19359;51.402;6.778;2022-09-30T00:39:12;5.10;1.00
7784;DHT22;19359;51.402;6.778;2022-09-30T00:41:40;5.20;1.00
7784;DHT22;19359;51.402;6.778;2022-09-30T00:47:37;5.10;1.00
7784;DHT22;19359;51.402;6.778;2022-09-30T00:50:14;5.00;1.00
7784;DHT22;19359;51.402;6.778;2022-09-30T00:52:44;5.00;1.00
7784;DHT22;19359;51.402;6.778;2022-09-30T00:55:26;5.00;1.00
7784;DHT22;19359;51.402;6.778;2022-09-30T00:57:58;6.20;1.00
7784;DHT22;19359;51.402;6.778;2022-09-30T01:00:25;6.70;1.00
7784;DHT22;19359;51.402;6.778;2022-09-30T01:02:52;5.00;1.00
7784;DHT22;19359;51.402;6.778;2022-09-30T01:05:19;6.80;1.00
7784;DHT22;19359;51.402;6.778;2022-09-30T01:07:47;5.00;1.00
7784;DHT22;19359;51.402;6.778;2022-09-30T01:10:16;4.90;1.00
7784;DHT22;19359;51.402;6.778;2022-09-30T01:12:42;4.90;1.00
7784;DHT22;19359;51.402;6.778;2022-09-30T01:15:10;4.90;1.00
7784;DHT22;19359;51.402;6.778;2022-09-30T01:17:46;4.90;1.00
7784;DHT22;19359;51.402;6.778;2022-09-30T01:20:32;4.90;1.00
7784;DHT22;19359;51.402;6.778;2022-09-30T01:23:27;7.00;1.00
7784;DHT22;19359;51.402;6.778;2022-09-30T01:26:18;4.80;1.00
7784;DHT22;19359;51.402;6.778;2022-09-30T01:29:18;5.40;1.00
7784;DHT22;19359;51.402;6.778;2022-09-30T01:31:55;4.80;1.00
7784;DHT22;19359;51.402;6.778;2022-09-30T01:34:34;4.80;1.00
7784;DHT22;19359;51.402;6.778;2022-09-30T01:37:09;7.80;1.00
7784;DHT22;19359;51.402;6.778;2022-09-30T01:39:49;5.70;1.00
7784;DHT22;19359;51.402;6.778;2022-09-30T01:42:22;4.80;1.00
7784;DHT22;19359;51.402;6.778;2022-09-30T01:44:57;7.50;1.00
7784;DHT22;19359;51.402;6.778;2022-09-30T01:47:30;7.30;1.00
7784;DHT22;19359;51.402;6.778;2022-09-30T01:50:02;4.70;1.00
7784;DHT22;19359;51.402;6.778;2022-09-30T01:52:34;4.60;1.00
7784;DHT22;19359;51.402;6.778;2022-09-30T01:55:08;4.60;1.00
7784;DHT22;19359;51.402;6.778;2022-09-30T01:57:41;7.20;1.00
7784;DHT22;19359;51.402;6.778;2022-09-30T02:00:11;4.60;1.00
7784;DHT22;19359;51.402;6.778;2022-09-30T02:02:43;4.60;1.00
7784;DHT22;19359;51.402;6.778;2022-09-30T02:05:16;6.50;1.00
7784;DHT22;19359;51.402;6.778;2022-09-30T02:07:48;4.60;1.00
7784;DHT22;19359;51.402;6.778;2022-09-30T02:10:18;5.40;1.00
7784;DHT22;19359;51.402;6.778;2022-09-30T02:12:49;4.60;1.00
7784;DHT22;19359;51.402;6.778;2022-09-30T02:15:21;4.60;1.00
7784;DHT22;19359;51.402;6.778;2022-09-30T02:17:51;4.60;1.00
7784;DHT22;19359;51.402;6.778;2022-09-30T02:20:23;4.60;1.00
7784;DHT22;19359;51.402;6.778;2022-09-30T02:22:54;4.60;1.00
7784;DHT22;19359;51.402;6.778;2022-09-30T02:25:26;4.60;1.00
7784;DHT22;19359;51.402;6.778;2022-09-30T02:27:56;4.60;1.00
7784;DHT22;19359;51.402;6.778;2022-09-30T02:30:24;3.30;1.00
7784;DHT22;19359;51.402;6.778;2022-09-30T02:32:56;4.60;1.00
7784;DHT22;19359;51.402;6.778;2022-09-30T02:35:27;4.50;1.00
7784;DHT22;19359;51.402;6.778;2022-09-30T02:37:57;6.70;1.00
7784;DHT22;19359;51.402;6.778;2022-09-30T02:40:28;5.80;1.00
7784;DHT22;19359;51.402;6.778;2022-09-30T02:42:56;6.60;1.00
7784;DHT22;19359;51.402;6.778;2022-09-30T02:45:23;4.50;1.00
7784;DHT22;19359;51.402;6.778;2022-09-30T02:48:08;5.10;1.00
7784;DHT22;19359;51.402;6.778;2022-09-30T02:50:45;4.40;1.00
7784;DHT22;19359;51.402;6.778;2022-09-30T02:53:18;4.40;1.00
7784;DHT22;19359;51.402;6.778;2022-09-30T02:56:00;4.40;1.00
7784;DHT22;19359;51.402;6.778;2022-09-30T02:58:28;7.20;1.00
7784;DHT22;19359;51.402;6.778;2022-09-30T03:00:59;4.40;1.00
7784;DHT22;19359;51.402;6.778;2022-09-30T03:03:30;6.20;1.00
7784;DHT22;19359;51.402;6.778;2022-09-30T03:05:58;6.50;1.00
7784;DHT22;19359;51.402;6.778;2022-09-30T03:08:25;4.40;1.00
7784;DHT22;19359;51.402;6.778;2022-09-30T03:10:52;4.40;1.00
7784;DHT22;19359;51.402;6.778;2022-09-30T03:13:37;4.30;1.00
7784;DHT22;19359;51.402;6.778;2022-09-30T03:16:16;4.30;1.00
7784;DHT22;19359;51.402;6.778;2022-09-30T03:19:00;4.60;1.00
7784;DHT22;19359;51.402;6.778;2022-09-30T03:21:42;4.30;1.00
7784;DHT22;19359;51.402;6.778;2022-09-30T03:24:22;5.30;1.00
7784;DHT22;19359;51.402;6.778;2022-09-30T03:26:59;4.30;1.00
7784;DHT22;19359;51.402;6.778;2022-09-30T03:29:35;4.40;1.00
7784;DHT22;19359;51.402;6.778;2022-09-30T03:32:12;6.10;1.00
7784;DHT22;19359;51.402;6.778;2022-09-30T03:34:57;4.30;1.00
7784;DHT22;19359;51.402;6.778;2022-09-30T03:37:27;4.30;1.00
7784;DHT22;19359;51.402;6.778;2022-09-30T03:40:02;4.40;1.00
7784;DHT22;19359;51.402;6.778;2022-09-30T03:42:35;4.30;1.00
7784;DHT22;19359;51.402;6.778;2022-09-30T03:45:08;6.50;1.00
7784;DHT22;19359;51.402;6.778;2022-09-30T03:47:45;4.30;1.00
7784;DHT22;19359;51.402;6.778;2022-09-30T03:50:16;4.40;1.00
7784;DHT22;19359;51.402;6.778;2022-09-30T03:52:45;4.40;1.00
7784;DHT22;19359;51.402;6.778;2022-09-30T03:55:13;5.60;1.00
7784;DHT22;19359;51.402;6.778;2022-09-30T03:57:41;4.40;1.00
7784;DHT22;19359;51.402;6.778;2022-09-30T04:00:10;5.60;1.00
7784;DHT22;19359;51.402;6.778;2022-09-30T04:02:37;4.40;1.00
7784;DHT22;19359;51.402;6.778;2022-09-30T04:05:06;4.40;1.00
7784;DHT22;19359;51.402;6.778;2022-09-30T04:07:34;4.30;1.00
7784;DHT22;19359;51.402;6.778;2022-09-30T04:10:01;4.30;1.00
7784;DHT22;19359;51.402;6.778;2022-09-30T04:12:28;4.30;1.00
7784;DHT22;19359;51.402;6.778;2022-09-30T04:14:55;4.30;1.00
7784;DHT22;19359;51.402;6.778;2022-09-30T04:17:22;7.30;1.00
7784;DHT22;19359;51.402;6.778;2022-09-30T04:19:49;4.30;1.00
7784;DHT22;19359;51.402;6.778;2022-09-30T04:22:15;4.30;1.00
7784;DHT22;19359;51.402;6.778;2022-09-30T04:24:43;4.30;1.00
7784;DHT22;19359;51.402;6.778;2022-09-30T04:27:11;4.30;1.00
7784;DHT22;19359;51.402;6.778;2022-09-30T04:29:38;4.30;1.00
7784;DHT22;19359;51.402;6.778;2022-09-30T04:32:05;4.30;1.00
7784;DHT22;19359;51.402;6.778;2022-09-30T04:34:32;4.30;1.00
7784;DHT22;19359;51.402;6.778;2022-09-30T04:36:58;4.20;1.00
7784;DHT22;19359;51.402;6.778;2022-09-30T04:39:25;4.20;1.00
7784;DHT22;19359;51.402;6.778;2022-09-30T04:41:53;4.20;1.00
7784;DHT22;19359;51.402;6.778;2022-09-30T04:44:20;5.60;1.00
7784;DHT22;19359;51.402;6.778;2022-09-30T04:46:47;5.20;1.00
7784;DHT22;19359;51.402;6.778;2022-09-30T04:49:15;4.10;1.00
7784;DHT22;19359;51.402;6.778;2022-09-30T04:51:41;4.80;4.70
7784;DHT22;19359;51.402;6.778;2022-09-30T04:54:10;4.20;1.00
7784;DHT22;19359;51.402;6.778;2022-09-30T04:56:37;4.20;1.00
7784;DHT22;19359;51.402;6.778;2022-09-30T04:59:06;4.10;1.00
7784;DHT22;19359;51.402;6.778;2022-09-30T05:01:33;4.20;77.90
7784;DHT22;19359;51.402;6.778;2022-09-30T05:04:00;4.30;99.90
7784;DHT22;19359;51.402;6.778;2022-09-30T05:06:27;4.30;99.90
7784;DHT22;19359;51.402;6.778;2022-09-30T05:08:53;4.20;99.90
7784;DHT22;19359;51.402;6.778;2022-09-30T05:11:21;4.30;99.90
7784;DHT22;19359;51.402;6.778;2022-09-30T05:13:48;4.20;99.90
7784;DHT22;19359;51.402;6.778;2022-09-30T05:16:17;5.10;99.90
7784;DHT22;19359;51.402;6.778;2022-09-30T05:18:43;4.20;99.90
7784;DHT22;19359;51.402;6.778;2022-09-30T05:21:11;4.20;99.90
7784;DHT22;19359;51.402;6.778;2022-09-30T05:23:38;4.10;99.90
7784;DHT22;19359;51.402;6.778;2022-09-30T05:26:05;4.20;99.90
7784;DHT22;19359;51.402;6.778;2022-09-30T05:28:32;4.10;99.90
7784;DHT22;19359;51.402;6.778;2022-09-30T05:31:01;4.10;99.90
7784;DHT22;19359;51.402;6.778;2022-09-30T05:33:29;4.10;99.90
7784;DHT22;19359;51.402;6.778;2022-09-30T05:36:00;4.10;99.90
7784;DHT22;19359;51.402;6.778;2022-09-30T05:38:27;4.10;99.90
7784;DHT22;19359;51.402;6.778;2022-09-30T05:40:54;4.10;99.90
7784;DHT22;19359;51.402;6.778;2022-09-30T05:43:21;4.10;99.90
7784;DHT22;19359;51.402;6.778;2022-09-30T05:45:52;4.10;99.90
7784;DHT22;19359;51.402;6.778;2022-09-30T05:48:19;4.10;99.90
7784;DHT22;19359;51.402;6.778;2022-09-30T05:50:48;4.10;99.90
7784;DHT22;19359;51.402;6.778;2022-09-30T05:53:15;4.10;99.90
7784;DHT22;19359;51.402;6.778;2022-09-30T05:55:44;4.20;99.90
7784;DHT22;19359;51.402;6.778;2022-09-30T05:58:11;4.20;1.00
7784;DHT22;19359;51.402;6.778;2022-09-30T06:00:40;4.30;1.00
7784;DHT22;19359;51.402;6.778;2022-09-30T06:03:07;4.40;1.00
7784;DHT22;19359;51.402;6.778;2022-09-30T06:05:34;4.30;99.90
7784;DHT22;19359;51.402;6.778;2022-09-30T06:08:03;4.30;1.00
7784;DHT22;19359;51.402;6.778;2022-09-30T06:10:32;4.40;99.90
7784;DHT22;19359;51.402;6.778;2022-09-30T06:13:01;4.40;1.00
7784;DHT22;19359;51.402;6.778;2022-09-30T06:15:28;4.40;99.90
7784;DHT22;19359;51.402;6.778;2022-09-30T06:17:55;4.40;99.90
7784;DHT22;19359;51.402;6.778;2022-09-30T06:20:21;4.50;99.90
7784;DHT22;19359;51.402;6.778;2022-09-30T06:22:48;4.50;99.90
7784;DHT22;19359;51.402;6.778;2022-09-30T06:25:16;4.60;99.90
7784;DHT22;19359;51.402;6.778;2022-09-30T06:27:44;4.60;1.00
7784;DHT22;19359;51.402;6.778;2022-09-30T06:30:12;4.70;1.00
7784;DHT22;19359;51.402;6.778;2022-09-30T06:32:39;4.80;1.00
7784;DHT22;19359;51.402;6.778;2022-09-30T06:35:07;4.90;1.00
7784;DHT22;19359;51.402;6.778;2022-09-30T06:37:34;5.10;99.90
7784;DHT22;19359;51.402;6.778;2022-09-30T06:40:03;5.40;1.00
7784;DHT22;19359;51.402;6.778;2022-09-30T06:42:31;5.60;92.10
7784;DHT22;19359;51.402;6.778;2022-09-30T06:44:58;5.70;99.90
7784;DHT22;19359;51.402;6.778;2022-09-30T06:47:25;5.80;99.90
7784;DHT22;19359;51.402;6.778;2022-09-30T06:53:14;6.10;99.90
7784;DHT22;19359;51.402;6.778;2022-09-30T06:55:40;6.40;99.90
7784;DHT22;19359;51.402;6.778;2022-09-30T06:58:14;6.40;99.90
7784;DHT22;19359;51.402;6.778;2022-09-30T07:00:41;6.50;99.90
7784;DHT22;19359;51.402;6.778;2022-09-30T07:03:20;6.60;99.90
7784;DHT22;19359;51.402;6.778;2022-09-30T07:05:53;6.70;99.90
7784;DHT22;19359;51.402;6.778;2022-09-30T07:08:21;6.80;99.90
7784;DHT22;19359;51.402;6.778;2022-09-30T07:10:50;6.80;99.90
7784;DHT22;19359;51.402;6.778;2022-09-30T07:13:18;6.90;99.90
7784;DHT22;19359;51.402;6.778;2022-09-30T07:15:45;7.00;99.90
7784;DHT22;19359;51.402;6.778;2022-09-30T07:18:12;7.10;99.90
7784;DHT22;19359;51.402;6.778;2022-09-30T07:24:01;7.20;99.90
7784;DHT22;19359;51.402;6.778;2022-09-30T07:26:28;7.40;99.90
7784;DHT22;19359;51.402;6.778;2022-09-30T07:28:56;7.40;99.90
7784;DHT22;19359;51.402;6.778;2022-09-30T07:31:25;7.50;99.90
7784;DHT22;19359;51.402;6.778;2022-09-30T07:33:53;7.60;99.90
7784;DHT22;19359;51.402;6.778;2022-09-30T07:36:22;7.60;99.90
7784;DHT22;19359;51.402;6.778;2022-09-30T07:38:52;7.80;99.90
7784;DHT22;19359;51.402;6.778;2022-09-30T07:41:21;7.90;99.90
7784;DHT22;19359;51.402;6.778;2022-09-30T07:43:52;8.00;99.90
7784;DHT22;19359;51.402;6.778;2022-09-30T07:46:23;8.00;99.90
7784;DHT22;19359;51.402;6.778;2022-09-30T07:48:52;8.10;99.90
7784;DHT22;19359;51.402;6.778;2022-09-30T07:51:24;8.20;99.90
7784;DHT22;19359;51.402;6.778;2022-09-30T07:53:53;8.40;99.90
7784;DHT22;19359;51.402;6.778;2022-09-30T07:56:21;8.40;99.90
7784;DHT22;19359;51.402;6.778;2022-09-30T07:58:49;8.60;99.90
7784;DHT22;19359;51.402;6.778;2022-09-30T08:01:18;8.70;99.90
7784;DHT22;19359;51.402;6.778;2022-09-30T08:03:47;8.80;99.90
7784;DHT22;19359;51.402;6.778;2022-09-30T08:06:16;9.00;99.90
7784;DHT22;19359;51.402;6.778;2022-09-30T08:08:44;9.00;99.90
7784;DHT22;19359;51.402;6.778;2022-09-30T08:11:12;9.10;99.90
7784;DHT22;19359;51.402;6.778;2022-09-30T08:13:39;9.20;99.90
7784;DHT22;19359;51.402;6.778;2022-09-30T08:16:07;9.40;99.90
7784;DHT22;19359;51.402;6.778;2022-09-30T08:18:33;9.50;99.90
7784;DHT22;19359;51.402;6.778;2022-09-30T08:21:03;9.60;99.90
7784;DHT22;19359;51.402;6.778;2022-09-30T08:23:31;9.70;99.90
7784;DHT22;19359;51.402;6.778;2022-09-30T08:26:02;9.80;99.90
7784;DHT22;19359;51.402;6.778;2022-09-30T08:28:30;10.00;99.90
7784;DHT22;19359;51.402;6.778;2022-09-30T08:31:03;10.00;99.90
7784;DHT22;19359;51.402;6.778;2022-09-30T08:33:30;10.00;99.90
7784;DHT22;19359;51.402;6.778;2022-09-30T08:36:02;10.10;27.50
7784;DHT22;19359;51.402;6.778;2022-09-30T08:38:29;10.20;99.90
7784;DHT22;19359;51.402;6.778;2022-09-30T08:41:10;10.40;99.90
7784;DHT22;19359;51.402;6.778;2022-09-30T08:43:42;10.50;1.00
7784;DHT22;19359;51.402;6.778;2022-09-30T08:46:16;10.60;1.00
7784;DHT22;19359;51.402;6.778;2022-09-30T08:48:51;10.60;1.00
7784;DHT22;19359;51.402;6.778;2022-09-30T08:51:29;10.70;1.00
7784;DHT22;19359;51.402;6.778;2022-09-30T08:54:01;10.80;1.00
7784;DHT22;19359;51.402;6.778;2022-09-30T08:56:30;10.90;1.00
7784;DHT22;19359;51.402;6.778;2022-09-30T08:59:02;10.90;1.00
7784;DHT22;19359;51.402;6.778;2022-09-30T09:01:32;11.00;1.00
7784;DHT22;19359;51.402;6.778;2022-09-30T09:04:01;11.10;1.00
7784;DHT22;19359;51.402;6.778;2022-09-30T09:06:35;11.20;1.00
7784;DHT22;19359;51.402;6.778;2022-09-30T09:09:23;11.30;1.00
7784;DHT22;19359;51.402;6.778;2022-09-30T09:12:04;11.40;1.00
7784;DHT22;19359;51.402;6.778;2022-09-30T09:14:38;11.50;1.00
7784;DHT22;19359;51.402;6.778;2022-09-30T09:17:17;11.70;1.00
7784;DHT22;19359;51.402;6.778;2022-09-30T09:19:49;11.80;1.00
7784;DHT22;19359;51.402;6.778;2022-09-30T09:22:20;11.90;1.00
7784;DHT22;19359;51.402;6.778;2022-09-30T09:24:49;12.00;1.00
7784;DHT22;19359;51.402;6.778;2022-09-30T09:27:20;12.10;1.00
7784;DHT22;19359;51.402;6.778;2022-09-30T09:29:56;12.30;1.00
7784;DHT22;19359;51.402;6.778;2022-09-30T09:32:26;12.30;1.00
7784;DHT22;19359;51.402;6.778;2022-09-30T09:34:57;12.50;1.00
7784;DHT22;19359;51.402;6.778;2022-09-30T09:37:33;12.40;1.00
7784;DHT22;19359;51.402;6.778;2022-09-30T09:40:37;12.50;1.00
7784;DHT22;19359;51.402;6.778;2022-09-30T09:43:12;12.50;1.00
7784;DHT22;19359;51.402;6.778;2022-09-30T09:45:50;12.60;1.00
7784;DHT22;19359;51.402;6.778;2022-09-30T09:48:19;12.70;1.00
7784;DHT22;19359;51.402;6.778;2022-09-30T09:50:54;12.80;1.00
7784;DHT22;19359;51.402;6.778;2022-09-30T09:53:36;12.80;1.00
7784;DHT22;19359;51.402;6.778;2022-09-30T09:56:12;12.70;1.00
7784;DHT22;19359;51.402;6.778;2022-09-30T10:01:47;12.70;1.00
7784;DHT22;19359;51.402;6.778;2022-09-30T10:04:17;12.80;1.00
7784;DHT22;19359;51.402;6.778;2022-09-30T10:06:49;12.90;1.00
7784;DHT22;19359;51.402;6.778;2022-09-30T10:09:36;13.10;1.00
7784;DHT22;19359;51.402;6.778;2022-09-30T10:12:26;13.10;1.00
7784;DHT22;19359;51.402;6.778;2022-09-30T10:15:13;13.20;1.00
7784;DHT22;19359;51.402;6.778;2022-09-30T10:17:41;13.20;1.00
7784;DHT22;19359;51.402;6.778;2022-09-30T10:20:20;14.70;1.00
7784;DHT22;19359;51.402;6.778;2022-09-30T10:22:48;13.30;1.00
7784;DHT22;19359;51.402;6.778;2022-09-30T10:25:25;13.40;1.00
7784;DHT22;19359;51.402;6.778;2022-09-30T10:27:55;13.40;1.00
7784;DHT22;19359;51.402;6.778;2022-09-30T10:30:38;13.50;1.00
7784;DHT22;19359;51.402;6.778;2022-09-30T10:33:13;14.00;1.00
7784;DHT22;19359;51.402;6.778;2022-09-30T10:36:10;13.70;1.00
7784;DHT22;19359;51.402;6.778;2022-09-30T10:38:46;13.70;1.00
7784;DHT22;19359;51.402;6.778;2022-09-30T10:41:21;13.70;1.00
7784;DHT22;19359;51.402;6.778;2022-09-30T10:43:50;13.80;1.00
7784;DHT22;19359;51.402;6.778;2022-09-30T10:46:21;13.90;1.00
7784;DHT22;19359;51.402;6.778;2022-09-30T10:48:50;13.90;1.00
7784;DHT22;19359;51.402;6.778;2022-09-30T10:51:24;14.00;1.00
7784;DHT22;19359;51.402;6.778;2022-09-30T10:53:52;14.00;1.00
7784;DHT22;19359;51.402;6.778;2022-09-30T10:56:37;14.20;1.00
7784;DHT22;19359;51.402;6.778;2022-09-30T10:59:06;14.30;1.00
7784;DHT22;19359;51.402;6.778;2022-09-30T11:01:44;15.20;1.00
7784;DHT22;19359;51.402;6.778;2022-09-30T11:04:20;14.50;1.00
7784;DHT22;19359;51.402;6.778;2022-09-30T11:06:50;14.60;1.00
7784;DHT22;19359;51.402;6.778;2022-09-30T11:09:24;14.60;1.00
7784;DHT22;19359;51.402;6.778;2022-09-30T11:11:57;14.60;1.00
7784;DHT22;19359;51.402;6.778;2022-09-30T11:14:32;15.10;1.00
7784;DHT22;19359;51.402;6.778;2022-09-30T11:17:08;14.70;1.00
7784;DHT22;19359;51.402;6.778;2022-09-30T11:19:42;14.90;1.00
7784;DHT22;19359;51.402;6.778;2022-09-30T11:22:30;15.10;1.00
7784;DHT22;19359;51.402;6.778;2022-09-30T11:24:59;15.20;1.00
7784;DHT22;19359;51.402;6.778;2022-09-30T11:27:39;15.30;1.00
7784;DHT22;19359;51.402;6.778;2022-09-30T11:30:11;15.60;1.00
7784;DHT22;19359;51.402;6.778;2022-09-30T11:32:51;15.80;1.00
7784;DHT22;19359;51.402;6.778;2022-09-30T11:35:32;15.90;99.90
7784;DHT22;19359;51.402;6.778;2022-09-30T11:38:09;15.90;1.00
7784;DHT22;19359;51.402;6.778;2022-09-30T11:40:47;16.00;99.90
7784;DHT22;19359;51.402;6.778;2022-09-30T11:43:26;16.00;99.90
7784;DHT22;19359;51.402;6.778;2022-09-30T11:49:05;16.10;99.90
7784;DHT22;19359;51.402;6.778;2022-09-30T11:51:40;16.10;99.90
7784;DHT22;19359;51.402;6.778;2022-09-30T11:54:21;16.20;99.90
7784;DHT22;19359;51.402;6.778;2022-09-30T11:56:54;16.40;99.90
7784;DHT22;19359;51.402;6.778;2022-09-30T11:59:27;16.40;99.90
7784;DHT22;19359;51.402;6.778;2022-09-30T12:02:00;16.40;99.90
7784;DHT22;19359;51.402;6.778;2022-09-30T12:04:29;16.20;99.90
7784;DHT22;19359;51.402;6.778;2022-09-30T12:07:00;16.20;99.90
7784;DHT22;19359;51.402;6.778;2022-09-30T12:09:34;16.30;99.90
7784;DHT22;19359;51.402;6.778;2022-09-30T12:12:05;16.40;99.90
7784;DHT22;19359;51.402;6.778;2022-09-30T12:14:40;16.70;99.90
7784;DHT22;19359;51.402;6.778;2022-09-30T12:17:18;16.90;99.90
7784;DHT22;19359;51.402;6.778;2022-09-30T12:19:47;17.00;99.90
7784;DHT22;19359;51.402;6.778;2022-09-30T12:22:18;17.10;99.90
7784;DHT22;19359;51.402;6.778;2022-09-30T12:24:46;17.10;99.90
7784;DHT22;19359;51.402;6.778;2022-09-30T12:27:17;17.20;99.90
7784;DHT22;19359;51.402;6.778;2022-09-30T12:29:54;17.10;99.90
7784;DHT22;19359;51.402;6.778;2022-09-30T12:33:10;17.10;99.90
7784;DHT22;19359;51.402;6.778;2022-09-30T12:41:56;17.60;99.90
7784;DHT22;19359;51.402;6.778;2022-09-30T12:44:40;17.70;99.90
7784;DHT22;19359;51.402;6.778;2022-09-30T12:47:20;18.20;99.90
7784;DHT22;19359;51.402;6.778;2022-09-30T12:49:53;17.80;99.90
7784;DHT22;19359;51.402;6.778;2022-09-30T12:52:22;17.60;99.90
7784;DHT22;19359;51.402;6.778;2022-09-30T12:54:52;17.80;99.90
7784;DHT22;19359;51.402;6.778;2022-09-30T12:57:24;17.60;99.90
7784;DHT22;19359;51.402;6.778;2022-09-30T12:59:54;17.30;99.90
7784;DHT22;19359;51.402;6.778;2022-09-30T13:02:30;18.40;99.90
7784;DHT22;19359;51.402;6.778;2022-09-30T13:05:41;19.50;99.90
7784;DHT22;19359;51.402;6.778;2022-09-30T13:08:41;19.30;99.90
7784;DHT22;19359;51.402;6.778;2022-09-30T13:11:31;19.90;99.90
7784;DHT22;19359;51.402;6.778;2022-09-30T13:14:11;18.90;99.90
7784;DHT22;19359;51.402;6.778;2022-09-30T13:19:37;18.60;99.90
7784;DHT22;19359;51.402;6.778;2022-09-30T13:25:17;18.90;99.90
7784;DHT22;19359;51.402;6.778;2022-09-30T13:27:45;19.20;99.90
7784;DHT22;19359;51.402;6.778;2022-09-30T13:30:43;20.30;99.90
7784;DHT22;19359;51.402;6.778;2022-09-30T13:33:28;20.60;99.90
7784;DHT22;19359;51.402;6.778;2022-09-30T13:36:04;20.10;99.90
7784;DHT22;19359;51.402;6.778;2022-09-30T13:38:37;20.60;99.90
7784;DHT22;19359;51.402;6.778;2022-09-30T13:41:12;21.40;99.90
7784;DHT22;19359;51.402;6.778;2022-09-30T13:43:43;21.90;99.90
7784;DHT22;19359;51.402;6.778;2022-09-30T13:46:21;21.00;99.90
7784;DHT22;19359;51.402;6.778;2022-09-30T13:48:54;20.60;99.90
7784;DHT22;19359;51.402;6.778;2022-09-30T13:51:27;21.00;99.90
7784;DHT22;19359;51.402;6.778;2022-09-30T13:53:57;21.20;99.90
7784;DHT22;19359;51.402;6.778;2022-09-30T13:56:26;21.20;99.90
7784;DHT22;19359;51.402;6.778;2022-09-30T13:59:14;21.60;99.90
7784;DHT22;19359;51.402;6.778;2022-09-30T14:04:56;22.50;99.90
7784;DHT22;19359;51.402;6.778;2022-09-30T14:07:36;23.10;99.90
7784;DHT22;19359;51.402;6.778;2022-09-30T14:10:30;23.40;99.90
7784;DHT22;19359;51.402;6.778;2022-09-30T14:13:15;22.80;99.90
7784;DHT22;19359;51.402;6.778;2022-09-30T14:16:11;23.30;99.90
7784;DHT22;19359;51.402;6.778;2022-09-30T14:21:44;22.10;99.90
7784;DHT22;19359;51.402;6.778;2022-09-30T14:24:20;21.70;99.90
7784;DHT22;19359;51.402;6.778;2022-09-30T14:27:03;22.20;99.90
7784;DHT22;19359;51.402;6.778;2022-09-30T14:29:43;23.00;99.90
7784;DHT22;19359;51.402;6.778;2022-09-30T14:32:16;22.80;99.90
7784;DHT22;19359;51.402;6.778;2022-09-30T14:34:44;21.10;99.90
7784;DHT22;19359;51.402;6.778;2022-09-30T14:37:17;19.90;99.90
7784;DHT22;19359;51.402;6.778;2022-09-30T14:39:47;19.20;99.90
7784;DHT22;19359;51.402;6.778;2022-09-30T14:42:22;19.20;99.90
7784;DHT22;19359;51.402;6.778;2022-09-30T14:44:50;20.10;99.90
7784;DHT22;19359;51.402;6.778;2022-09-30T14:47:19;20.80;99.90
7784;DHT22;19359;51.402;6.778;2022-09-30T14:49:47;21.50;99.90
7784;DHT22;19359;51.402;6.778;2022-09-30T14:52:35;22.00;99.90
7784;DHT22;19359;51.402;6.778;2022-09-30T14:55:21;22.70;99.90
7784;DHT22;19359;51.402;6.778;2022-09-30T14:57:51;22.90;99.90
7784;DHT22;19359;51.402;6.778;2022-09-30T15:00:28;23.40;99.90
7784;DHT22;19359;51.402;6.778;2022-09-30T15:02:56;23.40;99.90
7784;DHT22;19359;51.402;6.778;2022-09-30T15:05:24;22.80;99.90
7784;DHT22;19359;51.402;6.778;2022-09-30T15:07:51;22.30;99.90
7784;DHT22;19359;51.402;6.778;2022-09-30T15:10:22;21.90;99.90
7784;DHT22;19359;51.402;6.778;2022-09-30T15:12:50;21.50;99.90
7784;DHT22;19359;51.402;6.778;2022-09-30T15:15:33;21.30;99.90
7784;DHT22;19359;51.402;6.778;2022-09-30T15:21:24;21.10;99.90
7784;DHT22;19359;51.402;6.778;2022-09-30T15:27:19;22.50;99.90
7784;DHT22;19359;51.402;6.778;2022-09-30T15:29:54;22.60;99.90
7784;DHT22;19359;51.402;6.778;2022-09-30T15:32:22;22.20;1.00
7784;DHT22;19359;51.402;6.778;2022-09-30T15:34:50;22.10;1.00
7784;DHT22;19359;51.402;6.778;2022-09-30T15:37:21;21.90;1.00
7784;DHT22;19359;51.402;6.778;2022-09-30T15:39:49;21.30;99.90
7784;DHT22;19359;51.402;6.778;2022-09-30T15:42:36;21.00;99.90
7784;DHT22;19359;51.402;6.778;2022-09-30T15:45:26;20.70;99.90
7784;DHT22;19359;51.402;6.778;2022-09-30T15:47:56;20.40;99.90
7784;DHT22;19359;51.402;6.778;2022-09-30T15:50:34;20.20;99.90
7784;DHT22;19359;51.402;6.778;2022-09-30T15:53:03;20.20;99.90
7784;DHT22;19359;51.402;6.778;2022-09-30T15:55:37;20.40;99.90
7784;DHT22;19359;51.402;6.778;2022-09-30T15:58:33;20.50;99.90
7784;DHT22;19359;51.402;6.778;2022-09-30T16:01:16;20.20;99.90
7784;DHT22;19359;51.402;6.778;2022-09-30T16:03:50;19.90;99.90
7784;DHT22;19359;51.402;6.778;2022-09-30T16:06:23;19.50;99.90
7784;DHT22;19359;51.402;6.778;2022-09-30T16:08:54;19.10;99.90
7784;DHT22;19359;51.402;6.778;2022-09-30T16:11:28;18.60;99.90
7784;DHT22;19359;51.402;6.778;2022-09-30T16:13:58;18.10;99.90
7784;DHT22;19359;51.402;6.778;2022-09-30T16:16:27;17.90;99.90
7784;DHT22;19359;51.402;6.778;2022-09-30T16:22:01;17.30;99.90
7784;DHT22;19359;51.402;6.778;2022-09-30T16:24:47;17.10;99.90
7784;DHT22;19359;51.402;6.778;2022-09-30T16:27:27;17.00;99.90
7784;DHT22;19359;51.402;6.778;2022-09-30T16:29:59;16.80;99.90
7784;DHT22;19359;51.402;6.778;2022-09-30T16:32:31;16.70;99.90
7784;DHT22;19359;51.402;6.778;2022-09-30T16:35:01;16.50;99.90
7784;DHT22;19359;51.402;6.778;2022-09-30T16:37:28;16.20;99.90
7784;DHT22;19359;51.402;6.778;2022-09-30T16:39:59;16.10;99.90
7784;DHT22;19359;51.402;6.778;2022-09-30T16:42:27;15.90;99.90
7784;DHT22;19359;51.402;6.778;2022-09-30T16:44:58;15.70;99.90
7784;DHT22;19359;51.402;6.778;2022-09-30T16:47:26;15.70;99.90
7784;DHT22;19359;51.402;6.778;2022-09-30T16:49:53;15.50;99.90
7784;DHT22;19359;51.402;6.778;2022-09-30T16:52:19;15.50;99.90
7784;DHT22;19359;51.402;6.778;2022-09-30T16:54:46;15.30;99.90
7784;DHT22;19359;51.402;6.778;2022-09-30T16:57:13;15.10;99.90
7784;DHT22;19359;51.402;6.778;2022-09-30T16:59:41;15.00;99.90
7784;DHT22;19359;51.402;6.778;2022-09-30T17:02:13;14.90;99.90
7784;DHT22;19359;51.402;6.778;2022-09-30T17:04:41;14.80;99.90
7784;DHT22;19359;51.402;6.778;2022-09-30T17:07:11;14.60;99.90
7784;DHT22;19359;51.402;6.778;2022-09-30T17:09:39;14.50;99.90
7784;DHT22;19359;51.402;6.778;2022-09-30T17:12:07;14.30;99.90
7784;DHT22;19359;51.402;6.778;2022-09-30T17:14:36;14.20;99.90
7784;DHT22;19359;51.402;6.778;2022-09-30T17:17:03;14.00;99.90
7784;DHT22;19359;51.402;6.778;2022-09-30T17:19:31;13.80;99.90
7784;DHT22;19359;51.402;6.778;2022-09-30T17:22:00;13.60;99.90